map of FUK home
FUK - Airport
Location
City:  Fukuoka, Fukuoka, Japan
Name:Fukuoka Airport
Old (Alt.):Itazuke AFB
ICAO:RJFF
IATA:FUK

Details
Type:Airport (Aerodrome, Airfield)
Use:Public/Civil, Military, International (customs port of entry)
Latitude:33°35'09"N (33.585942)
Longitude:130°27'02"E (130.450686)
Datum:WGS 1984
Elevation:32 ft (10 m)
Variation:7.57°W (WMM2015v2 magnetic declination)
-0.08° annual change
Runways:1
Longest:9186 × 197 ft (2800 × 60 m), paved

Time
Time Zone:UTC+9
Local Time:

Weather
METAR:RJFF 041400Z AUTO VRB01KT 9999 NCD 04/01 Q1024 NOSIG RMK A3025
TAF:RJFF 041106Z 0412/0518 10004KT 9999 FEW040
TEMPO 0515/0518 4000 -SHRA BR

Related Locations
Nearby:
Farthest:SJRG: 12255 mi / 19723 km
Río Grande [Regional de Río Grande], RS, BR

Find:

   beyond  
but within

Other Information
Maps:
NOTAMs:
Links:
Sources:

  
  • flag of Japan
  • flag of Fukuoka
  • flag of Fukuoka
  

Airport Diagram

Airport diagram for FUK

Larger airport diagram (OBSOLETE) from NGA

Sectional Chart

Flight Planning
at skyvector.com

Satellite Image

Google Maps Satellite view

 

Copyright © 2004-2019 Karl L. Swartz. All rights reserved.
The Great Circle Mapper name and logo are trademarks of the Great Circle Mapper.
All other trademarks mentioned herein belong to their respective owners.
Please see credits for attibutions and further copyright information.

  Follow gcmap on Facebook Follow gcmap on Twitter GCmap on LinkedIn

hCard Microformat

Geo Microformat